Time;durP1;ratioP1;P1;durP2;ratioP2;P2;SDS_P1;SDS_P2;PMS_P1;PMS_P2;Temp;Humidity;BMP_temperature;BMP_pressure;BME280_temperature;BME280_humidity;BME280_pressure;Samples;Min_cycle;Max_cycle;Signal;HPM_P1;HPM_P2
2023/04/05 00:00:31;;;;;;;7.45;4.63;;;;;;;;;;5071285;28;20025;-74
2023/04/05 00:03:01;;;;;;;7.65;4.20;;;;;;;;;;5089989;28;20025;-73
2023/04/05 00:05:33;;;;;;;5.90;4.03;;;;;;;;;;5090021;28;20472;-73
2023/04/05 00:08:00;;;;;;;4.97;3.72;;;;;;;;;;5089555;28;20020;-74
2023/04/05 00:10:30;;;;;;;9.82;3.97;;;;;;;;;;5071367;28;20373;-73
2023/04/05 00:12:57;;;;;;;6.00;4.38;;;;;;;;;;5089635;28;20055;-74
2023/04/05 00:15:23;;;;;;;6.45;3.83;;;;;;;;;;5090432;28;20024;-73
2023/04/05 00:17:49;;;;;;;6.90;4.65;;;;;;;;;;5090211;28;20374;-73
2023/04/05 00:20:15;;;;;;;15.70;6.63;;;;;;;;;;5071824;28;20315;-73
2023/04/05 00:22:45;;;;;;;9.60;5.30;;;;;;;;;;5089986;28;20032;-73
2023/04/05 00:25:12;;;;;;;9.60;5.78;;;;;;;;;;5071797;28;20020;-73
2023/04/05 00:27:38;;;;;;;10.20;4.97;;;;;;;;;;5072003;28;20140;-74
2023/04/05 00:30:05;;;;;;;8.07;5.10;;;;;;;;;;5092718;28;20024;-74
2023/04/05 00:32:32;;;;;;;6.57;3.92;;;;;;;;;;5094219;28;20169;-74
2023/04/05 00:34:58;;;;;;;7.05;4.10;;;;;;;;;;5074611;28;20130;-74
2023/04/05 00:37:24;;;;;;;8.23;4.55;;;;;;;;;;5073511;28;20024;-73
2023/04/05 00:39:52;;;;;;;8.20;3.90;;;;;;;;;;5089957;28;20020;-73
2023/04/05 00:42:18;;;;;;;9.15;4.68;;;;;;;;;;5072081;28;20536;-73
2023/04/05 00:44:44;;;;;;;8.00;4.57;;;;;;;;;;5089352;28;20107;-73
2023/04/05 00:47:10;;;;;;;6.82;3.47;;;;;;;;;;5089712;28;20295;-73
2023/04/05 00:49:37;;;;;;;6.60;4.10;;;;;;;;;;5073377;28;20226;-73
2023/04/05 00:52:03;;;;;;;8.23;4.53;;;;;;;;;;5074479;28;20114;-74
2023/04/05 00:54:29;;;;;;;4.65;3.55;;;;;;;;;;5092906;28;20108;-73
2023/04/05 00:56:56;;;;;;;17.92;5.60;;;;;;;;;;5093150;28;20097;-74
2023/04/05 00:59:22;;;;;;;8.65;4.10;;;;;;;;;;5093050;28;20028;-73
2023/04/05 01:01:53;;;;;;;6.68;3.40;;;;;;;;;;5093130;28;20016;-73
2023/04/05 01:04:21;;;;;;;8.82;4.70;;;;;;;;;;5074727;28;20357;-74
2023/04/05 01:06:56;;;;;;;8.57;4.35;;;;;;;;;;5093210;28;20484;-74
2023/04/05 01:09:22;;;;;;;6.78;4.53;;;;;;;;;;5075116;28;20027;-73
2023/04/05 01:11:49;;;;;;;6.85;4.63;;;;;;;;;;5074950;28;20031;-73
2023/04/05 01:14:15;;;;;;;6.88;3.80;;;;;;;;;;5092576;28;20020;-73
2023/04/05 01:16:41;;;;;;;6.53;3.95;;;;;;;;;;5092551;28;20047;-73
2023/04/05 01:19:08;;;;;;;8.95;3.85;;;;;;;;;;5074203;28;20024;-73
2023/04/05 01:21:37;;;;;;;6.35;4.43;;;;;;;;;;5092416;28;20170;-73
2023/04/05 01:24:22;;;;;;;8.65;4.68;;;;;;;;;;5092682;28;20028;-74
2023/04/05 01:26:47;;;;;;;8.50;5.07;;;;;;;;;;5074107;28;20552;-74
2023/04/05 01:29:32;;;;;;;6.68;4.15;;;;;;;;;;5092093;28;20028;-73
2023/04/05 01:32:17;;;;;;;5.85;3.47;;;;;;;;;;5092160;28;20115;-72
2023/04/05 01:35:03;;;;;;;10.57;4.35;;;;;;;;;;5074757;28;20678;-73
2023/04/05 01:37:31;;;;;;;3.83;3.33;;;;;;;;;;5076863;28;20118;-74
2023/04/05 01:39:58;;;;;;;5.60;4.28;;;;;;;;;;5094207;28;20426;-74
2023/04/05 01:42:25;;;;;;;8.45;4.72;;;;;;;;;;5093505;28;20056;-73
2023/04/05 01:44:52;;;;;;;6.80;4.18;;;;;;;;;;5075272;28;20473;-73
2023/04/05 01:47:19;;;;;;;5.03;4.22;;;;;;;;;;5093950;28;20118;-74
2023/04/05 01:49:45;;;;;;;5.25;3.90;;;;;;;;;;5093740;28;20024;-74
2023/04/05 01:52:11;;;;;;;4.07;3.53;;;;;;;;;;5074207;28;20055;-74
2023/04/05 01:54:37;;;;;;;7.53;4.43;;;;;;;;;;5091943;28;20050;-74
2023/04/05 01:57:04;;;;;;;9.88;4.80;;;;;;;;;;5092602;28;20020;-73
2023/04/05 01:59:30;;;;;;;5.40;4.05;;;;;;;;;;5074351;28;20055;-73
2023/04/05 02:01:56;;;;;;;8.00;3.95;;;;;;;;;;5074175;28;20115;-75
2023/04/05 02:04:22;;;;;;;7.13;4.22;;;;;;;;;;5091915;28;20023;-74
2023/04/05 02:06:48;;;;;;;7.07;4.53;;;;;;;;;;5073165;28;20032;-74
2023/04/05 02:09:14;;;;;;;5.28;3.60;;;;;;;;;;5073493;28;20097;-74
2023/04/05 02:11:40;;;;;;;7.80;3.85;;;;;;;;;;5073276;28;20036;-74
2023/04/05 02:14:06;;;;;;;7.90;4.03;;;;;;;;;;5090963;28;20021;-74
2023/04/05 02:16:32;;;;;;;6.60;4.40;;;;;;;;;;5072951;28;20024;-73
2023/04/05 02:18:58;;;;;;;7.50;4.35;;;;;;;;;;5072736;28;20024;-72
2023/04/05 02:21:25;;;;;;;5.15;3.65;;;;;;;;;;5091173;28;20119;-73
2023/04/05 02:23:51;;;;;;;5.18;4.18;;;;;;;;;;5091619;28;20024;-72
2023/04/05 02:26:17;;;;;;;6.15;3.92;;;;;;;;;;5090901;28;20427;-73
2023/04/05 02:28:43;;;;;;;7.72;4.07;;;;;;;;;;5092430;28;20024;-74
2023/04/05 02:31:12;;;;;;;7.15;4.22;;;;;;;;;;5092411;28;20028;-73
2023/04/05 02:33:38;;;;;;;5.82;3.83;;;;;;;;;;5093746;28;20024;-74
2023/04/05 02:36:05;;;;;;;6.32;3.63;;;;;;;;;;5096639;28;20021;-74
2023/04/05 02:38:32;;;;;;;6.28;4.00;;;;;;;;;;5097012;28;20032;-74
2023/04/05 02:40:58;;;;;;;9.88;4.47;;;;;;;;;;5096555;28;20030;-74
2023/04/05 02:43:24;;;;;;;9.55;4.35;;;;;;;;;;5093710;28;20107;-73
2023/04/05 02:45:50;;;;;;;6.78;4.32;;;;;;;;;;5091078;28;20119;-73
2023/04/05 02:48:16;;;;;;;7.68;5.03;;;;;;;;;;5090868;28;20024;-73
2023/04/05 02:50:48;;;;;;;6.13;3.58;;;;;;;;;;5090830;28;20161;-73
2023/04/05 02:53:14;;;;;;;6.75;4.22;;;;;;;;;;5072604;28;20048;-73
2023/04/05 02:55:41;;;;;;;6.82;3.97;;;;;;;;;;5091484;28;20101;-73
2023/04/05 02:58:07;;;;;;;9.02;4.28;;;;;;;;;;5091116;28;20054;-73
2023/04/05 03:00:33;;;;;;;6.78;4.60;;;;;;;;;;5091210;28;20028;-74
2023/04/05 03:02:59;;;;;;;11.20;4.70;;;;;;;;;;5091702;28;20118;-73
2023/04/05 03:05:26;;;;;;;9.93;4.22;;;;;;;;;;5091780;28;20500;-73
2023/04/05 03:07:52;;;;;;;8.70;5.07;;;;;;;;;;5091003;28;20035;-73
2023/04/05 03:10:21;;;;;;;9.27;4.93;;;;;;;;;;5090801;28;20366;-74
2023/04/05 03:12:47;;;;;;;7.40;4.28;;;;;;;;;;5089957;28;20030;-73
2023/04/05 03:15:13;;;;;;;6.60;4.22;;;;;;;;;;5090879;28;20034;-73
2023/04/05 03:17:43;;;;;;;7.72;5.93;;;;;;;;;;5090703;28;20070;-73
2023/04/05 03:20:08;;;;;;;;;;;;;;;;;;5091416;28;20028;-73
2023/04/05 03:22:35;;;;;;;6.63;4.65;;;;;;;;;;5072259;28;19916;-74
2023/04/05 03:25:01;;;;;;;9.95;4.45;;;;;;;;;;5092767;28;20024;-74
2023/04/05 03:27:28;;;;;;;7.57;4.20;;;;;;;;;;5092530;28;20557;-73
2023/04/05 03:29:54;;;;;;;7.55;4.60;;;;;;;;;;5090796;28;20019;-73
2023/04/05 03:32:20;;;;;;;11.20;6.68;;;;;;;;;;5090601;28;20067;-73
2023/04/05 03:34:46;;;;;;;6.10;4.22;;;;;;;;;;5090721;28;20019;-73
2023/04/05 03:37:12;;;;;;;5.97;4.30;;;;;;;;;;5090781;28;20028;-73
2023/04/05 03:39:38;;;;;;;9.93;4.45;;;;;;;;;;5090315;28;20020;-73
2023/04/05 03:42:04;;;;;;;7.53;4.95;;;;;;;;;;5090779;28;20035;-74
2023/04/05 03:44:30;;;;;;;7.78;4.25;;;;;;;;;;5090680;28;20031;-73
2023/04/05 03:46:56;;;;;;;6.90;4.05;;;;;;;;;;5090547;28;20112;-73
2023/04/05 03:49:22;;;;;;;7.15;4.63;;;;;;;;;;5091588;28;20231;-73
2023/04/05 03:51:48;;;;;;;7.05;4.55;;;;;;;;;;5092737;28;20515;-73
2023/04/05 03:54:13;;;;;;;7.55;4.00;;;;;;;;;;5073668;28;20036;-74
2023/04/05 03:56:40;;;;;;;8.73;4.78;;;;;;;;;;5090532;28;20028;-73
2023/04/05 03:59:06;;;;;;;9.73;4.45;;;;;;;;;;5071963;28;20486;-74
2023/04/05 04:01:32;;;;;;;6.55;4.65;;;;;;;;;;5090340;28;20120;-73
2023/04/05 04:03:59;;;;;;;10.63;5.00;;;;;;;;;;5090797;28;20488;-74
2023/04/05 04:06:25;;;;;;;8.93;5.32;;;;;;;;;;5090347;28;20028;-73
2023/04/05 04:08:51;;;;;;;9.13;4.47;;;;;;;;;;5090327;28;20024;-74
2023/04/05 04:11:17;;;;;;;8.48;4.93;;;;;;;;;;5090401;28;20456;-73
2023/04/05 04:13:44;;;;;;;9.45;5.20;;;;;;;;;;5090173;28;20095;-73
2023/04/05 04:16:10;;;;;;;10.35;6.22;;;;;;;;;;5091128;28;20309;-74
2023/04/05 04:18:36;;;;;;;9.02;5.05;;;;;;;;;;5090463;28;20083;-74
2023/04/05 04:21:06;;;;;;;10.45;5.45;;;;;;;;;;5090247;28;20381;-73
2023/04/05 04:23:33;;;;;;;8.55;4.93;;;;;;;;;;5093711;28;20289;-74
2023/04/05 04:26:00;;;;;;;7.72;4.88;;;;;;;;;;5100752;28;20042;-74
2023/04/05 04:28:26;;;;;;;8.82;6.03;;;;;;;;;;5101690;28;20016;-74
2023/04/05 04:30:52;;;;;;;7.43;4.35;;;;;;;;;;5101455;28;20028;-74
2023/04/05 04:33:18;;;;;;;7.93;4.88;;;;;;;;;;5101416;28;20024;-74
2023/04/05 04:35:45;;;;;;;6.28;4.40;;;;;;;;;;5101457;28;20042;-74
2023/04/05 04:38:17;;;;;;;7.05;4.57;;;;;;;;;;5101629;28;20024;-74
2023/04/05 04:40:49;;;;;;;7.25;5.07;;;;;;;;;;5100936;28;20016;-74
2023/04/05 04:43:16;;;;;;;8.80;5.15;;;;;;;;;;5099368;28;20046;-74
2023/04/05 04:45:49;;;;;;;7.65;4.75;;;;;;;;;;5100096;28;20199;-74
2023/04/05 04:48:15;;;;;;;8.65;5.30;;;;;;;;;;5098653;28;20027;-73
2023/04/05 04:50:45;;;;;;;8.50;4.78;;;;;;;;;;5098895;28;20035;-74
2023/04/05 04:53:12;;;;;;;;;;;;;;;;;;5099324;28;20028;-74
2023/04/05 04:55:41;;;;;;;8.80;5.38;;;;;;;;;;5097642;28;19961;-74
2023/04/05 04:58:10;;;;;;;8.32;4.65;;;;;;;;;;5098594;28;20040;-74
2023/04/05 05:00:43;;;;;;;9.60;5.95;;;;;;;;;;5099010;28;20113;-75
2023/04/05 05:03:10;;;;;;;10.52;5.80;;;;;;;;;;5098402;28;20377;-74
2023/04/05 05:05:41;;;;;;;9.35;4.88;;;;;;;;;;5098860;28;20027;-73
2023/04/05 05:08:07;;;;;;;12.98;5.80;;;;;;;;;;5099483;28;20107;-74
2023/04/05 05:10:33;;;;;;;13.38;6.82;;;;;;;;;;5098314;28;20081;-74
2023/04/05 05:12:59;;;;;;;10.60;5.93;;;;;;;;;;5098552;28;20024;-73
2023/04/05 05:15:26;;;;;;;9.07;5.28;;;;;;;;;;5098433;28;20024;-74
2023/04/05 05:17:54;;;;;;;6.80;5.15;;;;;;;;;;5096111;28;20044;-74
2023/04/05 05:20:20;;;;;;;11.10;5.85;;;;;;;;;;5095973;28;20032;-74
2023/04/05 05:22:46;;;;;;;11.30;5.55;;;;;;;;;;5096417;28;20099;-74
2023/04/05 05:25:12;;;;;;;11.30;5.72;;;;;;;;;;5097104;28;20429;-74
2023/04/05 05:27:38;;;;;;;11.52;5.80;;;;;;;;;;5096649;28;20038;-74
2023/04/05 05:30:04;;;;;;;21.13;8.13;;;;;;;;;;5097528;28;20067;-75
2023/04/05 05:32:30;;;;;;;11.43;5.90;;;;;;;;;;5097555;28;20020;-74
2023/04/05 05:34:56;;;;;;;13.88;6.35;;;;;;;;;;5097683;28;20016;-74
2023/04/05 05:37:29;;;;;;;9.57;6.20;;;;;;;;;;5097775;28;20028;-75
2023/04/05 05:39:55;;;;;;;8.60;5.97;;;;;;;;;;5100322;28;20020;-74
2023/04/05 05:42:22;;;;;;;14.80;7.32;;;;;;;;;;5100228;28;20035;-75
2023/04/05 05:44:48;;;;;;;12.13;6.28;;;;;;;;;;5100850;28;20031;-74
2023/04/05 05:47:14;;;;;;;17.40;7.10;;;;;;;;;;5101137;28;20044;-74
2023/04/05 05:49:40;;;;;;;14.00;6.40;;;;;;;;;;5098251;28;20024;-74
2023/04/05 05:52:06;;;;;;;16.30;7.28;;;;;;;;;;5092701;28;20027;-74
2023/04/05 05:54:32;;;;;;;11.13;7.20;;;;;;;;;;5092375;28;20095;-73
2023/04/05 05:56:58;;;;;;;9.77;6.03;;;;;;;;;;5091974;28;20025;-74
2023/04/05 05:59:24;;;;;;;12.38;6.63;;;;;;;;;;5091803;28;20031;-74
2023/04/05 06:01:51;;;;;;;12.95;6.60;;;;;;;;;;5091647;28;20485;-75
2023/04/05 06:04:18;;;;;;;13.65;6.47;;;;;;;;;;5091524;28;20030;-74
2023/04/05 06:06:46;;;;;;;13.70;6.57;;;;;;;;;;5091683;28;20036;-73
2023/04/05 06:09:12;;;;;;;18.25;7.32;;;;;;;;;;5096149;28;20012;-74
2023/04/05 06:11:38;;;;;;;9.52;6.10;;;;;;;;;;5098281;28;20020;-74
2023/04/05 06:14:04;;;;;;;8.85;6.10;;;;;;;;;;5082197;28;20521;-75
2023/04/05 06:16:30;;;;;;;11.77;5.77;;;;;;;;;;5049743;28;1158277;-75
2023/04/05 06:18:57;;;;;;;9.30;6.20;;;;;;;;;;5089617;28;20024;-75
2023/04/05 06:21:23;;;;;;;13.85;6.80;;;;;;;;;;5089685;28;20042;-73
2023/04/05 06:23:49;;;;;;;11.77;6.85;;;;;;;;;;5089312;28;20028;-74
2023/04/05 06:26:17;;;;;;;12.80;6.90;;;;;;;;;;5071992;28;20024;-74
2023/04/05 06:28:46;;;;;;;10.57;6.63;;;;;;;;;;5089026;28;20022;-73
2023/04/05 06:31:14;;;;;;;10.25;6.50;;;;;;;;;;5072203;28;20108;-75
2023/04/05 06:33:40;;;;;;;15.70;6.68;;;;;;;;;;5096367;28;20034;-75
2023/04/05 06:36:06;;;;;;;8.73;6.38;;;;;;;;;;5097363;28;20074;-75
2023/04/05 06:38:32;;;;;;;13.30;6.60;;;;;;;;;;5090639;28;20032;-73
2023/04/05 06:40:58;;;;;;;9.90;7.15;;;;;;;;;;5070791;28;20771;-72
2023/04/05 06:43:24;;;;;;;9.18;6.10;;;;;;;;;;5088548;28;20024;-73
2023/04/05 06:45:50;;;;;;;14.40;6.20;;;;;;;;;;5088924;28;20024;-73
2023/04/05 06:48:16;;;;;;;10.02;6.18;;;;;;;;;;5088351;28;20024;-74
2023/04/05 06:50:42;;;;;;;11.38;5.55;;;;;;;;;;5070528;28;20346;-73
2023/04/05 06:53:08;;;;;;;25.50;10.50;;;;;;;;;;5070639;28;20059;-74
2023/04/05 06:55:34;;;;;;;40.03;16.35;;;;;;;;;;5088631;28;20054;-74
2023/04/05 06:58:00;;;;;;;12.65;6.72;;;;;;;;;;5070305;28;20012;-74
2023/04/05 07:00:26;;;;;;;12.00;7.10;;;;;;;;;;5090150;28;20036;-75
2023/04/05 07:02:52;;;;;;;10.82;6.55;;;;;;;;;;5072048;28;20480;-74
2023/04/05 07:05:18;;;;;;;8.23;5.30;;;;;;;;;;5091251;28;20059;-74
2023/04/05 07:07:47;;;;;;;8.45;5.47;;;;;;;;;;5090455;28;20480;-74
2023/04/05 07:10:13;;;;;;;10.05;5.88;;;;;;;;;;5091468;28;20016;-74
2023/04/05 07:12:40;;;;;;;13.30;6.38;;;;;;;;;;5090056;28;20017;-74
2023/04/05 07:15:06;;;;;;;15.82;9.95;;;;;;;;;;5071875;28;20050;-73
2023/04/05 07:17:32;;;;;;;17.67;7.43;;;;;;;;;;5089765;28;20547;-74
2023/04/05 07:19:58;;;;;;;13.90;6.53;;;;;;;;;;5071670;28;20569;-74
2023/04/05 07:22:24;;;;;;;24.73;9.65;;;;;;;;;;5071823;28;20155;-73
2023/04/05 07:24:51;;;;;;;54.95;19.08;;;;;;;;;;5071715;28;20028;-73
2023/04/05 07:27:17;;;;;;;11.45;5.25;;;;;;;;;;5080482;28;20368;-74
2023/04/05 07:29:43;;;;;;;33.55;12.60;;;;;;;;;;5094102;28;20070;-74
2023/04/05 07:32:09;;;;;;;11.32;7.15;;;;;;;;;;5073883;28;20052;-73
2023/04/05 07:34:35;;;;;;;12.85;6.30;;;;;;;;;;5071569;28;20392;-74
2023/04/05 07:37:02;;;;;;;10.52;6.15;;;;;;;;;;5094768;28;20073;-73
2023/04/05 07:39:28;;;;;;;7.95;5.80;;;;;;;;;;5076738;28;20028;-74
2023/04/05 07:41:54;;;;;;;7.95;5.53;;;;;;;;;;5076857;28;20024;-73
2023/04/05 07:44:20;;;;;;;12.35;7.38;;;;;;;;;;5073474;28;20016;-74
2023/04/05 07:46:46;;;;;;;11.32;6.18;;;;;;;;;;5091619;28;20496;-73
2023/04/05 07:49:12;;;;;;;7.32;4.43;;;;;;;;;;5071860;28;20038;-73
2023/04/05 07:51:38;;;;;;;8.63;5.00;;;;;;;;;;5072644;28;20036;-72
2023/04/05 07:54:04;;;;;;;9.90;5.40;;;;;;;;;;5087775;28;20016;-73
2023/04/05 07:56:31;;;;;;;9.32;4.97;;;;;;;;;;5089297;28;20069;-72
2023/04/05 07:58:58;;;;;;;12.65;7.13;;;;;;;;;;5070564;28;20021;-73
2023/04/05 08:01:26;;;;;;;7.53;5.20;;;;;;;;;;5086315;28;20049;-72
2023/04/05 08:03:53;;;;;;;12.73;5.63;;;;;;;;;;5103685;28;20315;-73
2023/04/05 08:06:19;;;;;;;9.30;4.88;;;;;;;;;;5106795;28;20067;-73
2023/04/05 08:08:46;;;;;;;8.75;4.43;;;;;;;;;;5107643;28;20291;-73
2023/04/05 08:11:12;;;;;;;8.13;5.60;;;;;;;;;;5110515;28;20039;-74
2023/04/05 08:13:42;;;;;;;9.88;4.90;;;;;;;;;;5091465;28;20035;-74
2023/04/05 08:16:09;;;;;;;6.22;4.35;;;;;;;;;;5103569;28;20341;-74
2023/04/05 08:18:35;;;;;;;7.97;4.63;;;;;;;;;;5102097;28;20131;-75
2023/04/05 08:21:01;;;;;;;7.97;4.93;;;;;;;;;;5103229;28;20477;-74
2023/04/05 08:23:27;;;;;;;6.07;4.18;;;;;;;;;;5105949;28;20069;-74
2023/04/05 08:25:53;;;;;;;6.95;4.60;;;;;;;;;;5098053;28;20016;-75
2023/04/05 08:28:20;;;;;;;6.63;4.47;;;;;;;;;;5081131;28;20388;-75
2023/04/05 08:30:46;;;;;;;7.07;4.13;;;;;;;;;;5106985;28;20024;-75
2023/04/05 08:33:12;;;;;;;7.72;3.70;;;;;;;;;;5081961;28;20387;-75
2023/04/05 08:35:39;;;;;;;6.82;4.55;;;;;;;;;;5084522;28;20077;-73
2023/04/05 08:38:06;;;;;;;6.25;5.03;;;;;;;;;;5103259;28;20099;-73
2023/04/05 08:40:36;;;;;;;7.28;4.93;;;;;;;;;;5100702;28;20012;-75
2023/04/05 08:43:14;;;;;;;4.50;4.10;;;;;;;;;;5105168;28;20027;-73
2023/04/05 08:45:44;;;;;;;11.10;4.38;;;;;;;;;;5099366;28;20054;-74
2023/04/05 08:48:10;;;;;;;6.63;4.10;;;;;;;;;;5084675;28;20232;-75
2023/04/05 08:50:36;;;;;;;6.22;4.00;;;;;;;;;;5099085;28;20023;-73
2023/04/05 08:53:02;;;;;;;6.13;4.82;;;;;;;;;;5103827;28;20416;-74
2023/04/05 08:55:28;;;;;;;5.10;3.40;;;;;;;;;;5102998;28;20012;-74
2023/04/05 08:57:57;;;;;;;9.55;4.10;;;;;;;;;;5108957;28;20019;-75
2023/04/05 09:00:24;;;;;;;5.82;4.05;;;;;;;;;;5108259;28;20044;-74
2023/04/05 09:02:54;;;;;;;6.03;3.50;;;;;;;;;;5100790;28;20020;-74
2023/04/05 09:05:20;;;;;;;5.30;4.00;;;;;;;;;;5082586;28;20062;-73
2023/04/05 09:07:46;;;;;;;6.80;4.10;;;;;;;;;;5100299;28;20503;-73
2023/04/05 09:10:13;;;;;;;6.15;4.10;;;;;;;;;;5102373;28;20015;-74
2023/04/05 09:12:40;;;;;;;9.88;6.50;;;;;;;;;;5101211;28;20161;-73
2023/04/05 09:15:07;;;;;;;7.03;4.55;;;;;;;;;;5100859;28;20015;-74
2023/04/05 09:17:33;;;;;;;13.07;4.30;;;;;;;;;;5084209;28;20400;-74
2023/04/05 09:19:59;;;;;;;4.75;3.80;;;;;;;;;;5081659;28;20561;-73
2023/04/05 09:22:27;;;;;;;5.57;3.70;;;;;;;;;;5104573;28;20020;-74
2023/04/05 09:24:53;;;;;;;3.85;3.42;;;;;;;;;;5101696;28;20012;-74
2023/04/05 09:27:19;;;;;;;6.55;3.78;;;;;;;;;;5102162;28;20665;-75
2023/04/05 09:29:46;;;;;;;6.85;3.50;;;;;;;;;;5107163;28;20054;-74
2023/04/05 09:32:13;;;;;;;9.27;3.92;;;;;;;;;;5100747;28;20016;-74
2023/04/05 09:34:40;;;;;;;7.05;3.85;;;;;;;;;;5095143;28;20031;-75
2023/04/05 09:37:15;;;;;;;7.97;4.18;;;;;;;;;;5104729;28;20458;-74
2023/04/05 09:39:42;;;;;;;4.07;3.22;;;;;;;;;;5105198;28;20016;-73
2023/04/05 09:42:13;;;;;;;5.25;3.15;;;;;;;;;;5091168;28;20060;-74
2023/04/05 09:44:53;;;;;;;6.20;4.10;;;;;;;;;;5095458;28;20045;-75
2023/04/05 09:47:20;;;;;;;5.82;3.72;;;;;;;;;;5110712;28;20028;-74
2023/04/05 09:49:46;;;;;;;11.57;4.18;;;;;;;;;;5084150;28;20201;-74
2023/04/05 09:52:25;;;;;;;4.63;4.13;;;;;;;;;;5105900;28;20097;-74
2023/04/05 09:54:52;;;;;;;6.35;3.97;;;;;;;;;;5113731;28;20015;-74
2023/04/05 09:57:18;;;;;;;4.40;3.42;;;;;;;;;;5112533;28;20008;-73
2023/04/05 09:59:45;;;;;;;6.45;4.00;;;;;;;;;;5111667;28;20053;-74
2023/04/05 10:02:11;;;;;;;6.13;3.92;;;;;;;;;;5106851;28;20238;-74
2023/04/05 10:04:45;;;;;;;8.85;4.22;;;;;;;;;;5101249;28;20022;-74
2023/04/05 10:07:16;;;;;;;7.78;4.43;;;;;;;;;;5099944;28;20028;-74
2023/04/05 10:09:43;;;;;;;6.13;3.97;;;;;;;;;;5102445;28;20090;-74
2023/04/05 10:12:09;;;;;;;4.72;3.92;;;;;;;;;;5079250;28;20024;-74
2023/04/05 10:14:36;;;;;;;10.55;3.47;;;;;;;;;;5090591;28;20392;-75
2023/04/05 10:17:12;;;;;;;4.80;3.20;;;;;;;;;;5090971;28;20063;-74
2023/04/05 10:19:56;;;;;;;10.15;3.58;;;;;;;;;;5072638;28;20020;-74
2023/04/05 10:22:24;;;;;;;3.90;3.50;;;;;;;;;;5092851;28;20318;-75
2023/04/05 10:25:04;;;;;;;9.95;3.47;;;;;;;;;;5111231;28;20027;-73
2023/04/05 10:27:30;;;;;;;;;;;;;;;;;;5110125;28;20039;-74
2023/04/05 10:30:02;;;;;;;7.03;3.03;;;;;;;;;;5088862;28;19904;-74
2023/04/05 10:32:35;;;;;;;5.38;4.03;;;;;;;;;;5106532;28;20484;-74
2023/04/05 10:35:09;;;;;;;6.68;3.40;;;;;;;;;;5105704;28;20082;-74
2023/04/05 10:37:47;;;;;;;5.10;3.50;;;;;;;;;;5100860;28;20020;-74
2023/04/05 10:40:13;;;;;;;7.57;3.47;;;;;;;;;;5108342;28;20028;-74
2023/04/05 10:42:43;;;;;;;4.80;3.55;;;;;;;;;;5103276;28;20465;-74
2023/04/05 10:45:10;;;;;;;;;;;;;;;;;;5087932;28;20027;-74
2023/04/05 10:47:42;;;;;;;5.07;3.20;;;;;;;;;;5115272;28;19908;-74
2023/04/05 10:50:12;;;;;;;5.47;3.97;;;;;;;;;;5108507;28;20189;-74
2023/04/05 10:52:39;;;;;;;5.85;4.13;;;;;;;;;;5084796;28;20645;-73
2023/04/05 10:55:06;;;;;;;8.02;3.40;;;;;;;;;;5105258;28;20087;-74
2023/04/05 10:57:32;;;;;;;4.43;3.75;;;;;;;;;;5098652;28;20020;-73
2023/04/05 10:59:59;;;;;;;4.35;3.42;;;;;;;;;;5072032;28;20016;-74
2023/04/05 11:02:25;;;;;;;7.03;3.40;;;;;;;;;;5093390;28;20235;-74
2023/04/05 11:04:58;;;;;;;16.00;7.80;;;;;;;;;;5095519;28;20031;-74
2023/04/05 11:07:24;;;;;;;20.45;8.50;;;;;;;;;;5109729;28;20038;-74
2023/04/05 11:09:53;;;;;;;5.10;4.00;;;;;;;;;;5111178;28;20022;-74
2023/04/05 11:12:19;;;;;;;3.08;2.67;;;;;;;;;;5112354;28;20056;-74
2023/04/05 11:14:45;;;;;;;4.75;3.63;;;;;;;;;;5092765;28;20023;-73
2023/04/05 11:17:28;;;;;;;5.53;3.40;;;;;;;;;;5109358;28;20046;-74
2023/04/05 11:20:04;;;;;;;3.55;3.13;;;;;;;;;;5082201;28;20096;-75
2023/04/05 11:22:30;;;;;;;4.03;3.20;;;;;;;;;;5100311;28;20243;-75
2023/04/05 11:24:57;;;;;;;5.25;3.15;;;;;;;;;;5081771;28;20487;-75
2023/04/05 11:27:29;;;;;;;3.45;3.15;;;;;;;;;;5100053;28;20263;-75
2023/04/05 11:29:56;;;;;;;5.07;3.45;;;;;;;;;;5099519;28;20046;-74
2023/04/05 11:32:22;;;;;;;7.43;3.85;;;;;;;;;;5099858;28;20227;-74
2023/04/05 11:34:59;;;;;;;5.55;3.53;;;;;;;;;;5081601;28;20020;-73
2023/04/05 11:37:44;;;;;;;6.47;3.58;;;;;;;;;;5099249;28;20041;-74
2023/04/05 11:40:29;;;;;;;5.05;3.22;;;;;;;;;;5101446;28;20030;-74
2023/04/05 11:43:06;;;;;;;4.47;3.60;;;;;;;;;;5100956;28;20035;-76
2023/04/05 11:45:32;;;;;;;7.10;4.50;;;;;;;;;;5105146;28;20024;-73
2023/04/05 11:48:08;;;;;;;6.53;3.92;;;;;;;;;;5105349;28;20036;-74
2023/04/05 11:50:35;;;;;;;4.90;3.25;;;;;;;;;;5107193;28;20020;-73
2023/04/05 11:53:11;;;;;;;5.82;3.20;;;;;;;;;;5112470;28;20019;-74
2023/04/05 11:55:40;;;;;;;5.68;3.28;;;;;;;;;;5120604;28;20015;-74
2023/04/05 11:58:16;;;;;;;4.20;3.63;;;;;;;;;;5120741;28;20219;-74
2023/04/05 12:00:43;;;;;;;3.38;3.08;;;;;;;;;;5120375;28;20012;-74
2023/04/05 12:03:16;;;;;;;8.32;4.13;;;;;;;;;;5098505;28;20030;-75
2023/04/05 12:05:52;;;;;;;4.72;3.15;;;;;;;;;;5116011;28;20044;-75
2023/04/05 12:08:21;;;;;;;4.22;3.20;;;;;;;;;;5095672;28;20123;-73
2023/04/05 12:10:47;;;;;;;;;;;;;;;;;;5091717;28;20111;-76
2023/04/05 12:13:13;;;;;;;3.75;3.35;;;;;;;;;;5079635;28;19907;-74
2023/04/05 12:15:40;;;;;;;6.80;3.47;;;;;;;;;;5089450;28;20045;-74
2023/04/05 12:18:13;;;;;;;3.35;3.00;;;;;;;;;;5072436;28;20051;-73
2023/04/05 12:20:39;;;;;;;5.00;3.45;;;;;;;;;;5091477;28;20224;-74
2023/04/05 12:23:05;;;;;;;4.50;2.80;;;;;;;;;;5088030;28;20054;-74
2023/04/05 12:25:31;;;;;;;6.45;3.20;;;;;;;;;;5076600;28;20533;-73
2023/04/05 12:28:03;;;;;;;4.70;3.28;;;;;;;;;;5092360;28;20036;-74
2023/04/05 12:30:35;;;;;;;4.50;3.17;;;;;;;;;;5095036;28;20216;-73
2023/04/05 12:33:09;;;;;;;6.85;3.50;;;;;;;;;;5090762;28;20024;-73
2023/04/05 12:35:35;;;;;;;4.82;3.53;;;;;;;;;;5099363;28;20089;-74
2023/04/05 12:38:04;;;;;;;5.53;3.50;;;;;;;;;;5108606;28;20023;-73
2023/04/05 12:40:31;;;;;;;3.35;3.05;;;;;;;;;;5106971;28;20055;-73
2023/04/05 12:43:05;;;;;;;4.55;3.50;;;;;;;;;;5088908;28;20069;-75
2023/04/05 12:45:38;;;;;;;6.57;3.70;;;;;;;;;;5108077;28;20122;-74
2023/04/05 12:48:07;;;;;;;4.15;2.92;;;;;;;;;;5112204;28;20027;-74
2023/04/05 12:50:33;;;;;;;6.45;3.30;;;;;;;;;;5114443;28;20027;-75
2023/04/05 12:53:00;;;;;;;4.22;3.40;;;;;;;;;;5111031;28;20629;-75
2023/04/05 12:55:27;;;;;;;5.70;2.92;;;;;;;;;;5111555;28;20022;-74
2023/04/05 12:57:53;;;;;;;5.35;3.00;;;;;;;;;;5111294;28;20047;-74
2023/04/05 13:00:23;;;;;;;5.63;3.88;;;;;;;;;;5112483;28;20066;-74
2023/04/05 13:02:50;;;;;;;;;;;;;;;;;;5113056;28;20433;-75
2023/04/05 13:05:16;;;;;;;8.68;3.30;;;;;;;;;;5087879;28;19908;-74
2023/04/05 13:07:42;;;;;;;5.60;3.55;;;;;;;;;;5076248;28;20505;-74
2023/04/05 13:10:09;;;;;;;5.03;3.45;;;;;;;;;;5074158;28;20512;-75
2023/04/05 13:12:35;;;;;;;4.03;3.63;;;;;;;;;;5073438;28;20225;-75
2023/04/05 13:15:01;;;;;;;4.22;3.47;;;;;;;;;;5074737;28;20016;-75
2023/04/05 13:17:26;;;;;;;3.60;3.25;;;;;;;;;;5103080;28;20097;-75
2023/04/05 13:19:52;;;;;;;4.05;3.38;;;;;;;;;;5095724;28;20321;-75
2023/04/05 13:22:19;;;;;;;5.28;4.10;;;;;;;;;;5093088;28;20020;-75
2023/04/05 13:24:45;;;;;;;4.32;2.95;;;;;;;;;;5093342;28;20031;-74
2023/04/05 13:27:11;;;;;;;3.75;3.42;;;;;;;;;;5079695;28;20228;-75
2023/04/05 13:29:37;;;;;;;2.83;2.60;;;;;;;;;;5096828;28;20012;-75
2023/04/05 13:32:03;;;;;;;5.07;3.20;;;;;;;;;;5101923;28;20028;-75
2023/04/05 13:34:29;;;;;;;4.07;2.97;;;;;;;;;;5090663;28;20057;-75
2023/04/05 13:36:55;;;;;;;2.83;2.60;;;;;;;;;;5071820;28;20476;-75
2023/04/05 13:39:21;;;;;;;5.28;3.28;;;;;;;;;;5091490;28;20115;-76
2023/04/05 13:41:47;;;;;;;5.47;3.83;;;;;;;;;;5091835;28;20463;-76
2023/04/05 13:44:13;;;;;;;4.22;3.22;;;;;;;;;;5091278;28;20031;-75
2023/04/05 13:46:39;;;;;;;4.57;3.30;;;;;;;;;;5102927;28;20038;-75
2023/04/05 13:49:05;;;;;;;6.10;4.35;;;;;;;;;;5101262;28;20066;-75
2023/04/05 13:51:33;;;;;;;5.18;3.97;;;;;;;;;;5101760;28;20019;-76
2023/04/05 13:53:59;;;;;;;8.02;4.05;;;;;;;;;;5098557;28;20310;-76
2023/04/05 13:56:25;;;;;;;4.53;4.00;;;;;;;;;;5120245;28;20031;-75
2023/04/05 13:58:51;;;;;;;6.80;3.75;;;;;;;;;;5114176;28;20027;-77
2023/04/05 14:01:17;;;;;;;4.70;3.63;;;;;;;;;;5111603;28;20080;-75
2023/04/05 14:03:43;;;;;;;4.40;3.50;;;;;;;;;;5110351;28;20066;-74
2023/04/05 14:06:09;;;;;;;4.70;3.35;;;;;;;;;;5100453;28;20023;-75
2023/04/05 14:08:35;;;;;;;4.53;4.15;;;;;;;;;;5091993;28;20560;-74
2023/04/05 14:11:01;;;;;;;4.05;3.70;;;;;;;;;;5072803;28;20179;-75
2023/04/05 14:13:27;;;;;;;6.00;3.55;;;;;;;;;;5091108;28;20032;-76
2023/04/05 14:15:53;;;;;;;5.22;4.07;;;;;;;;;;5090974;28;20020;-75
2023/04/05 14:18:19;;;;;;;4.20;3.63;;;;;;;;;;5091048;28;20105;-75
2023/04/05 14:20:45;;;;;;;4.47;3.45;;;;;;;;;;5091011;28;20035;-75
2023/04/05 14:23:11;;;;;;;4.28;3.22;;;;;;;;;;5072728;28;20073;-76
2023/04/05 14:25:37;;;;;;;7.30;3.47;;;;;;;;;;5090820;28;20027;-75
2023/04/05 14:28:04;;;;;;;4.93;4.32;;;;;;;;;;5072479;28;20036;-73
2023/04/05 14:30:31;;;;;;;5.68;3.33;;;;;;;;;;5090482;28;20016;-75
2023/04/05 14:32:57;;;;;;;7.60;4.28;;;;;;;;;;5090456;28;20043;-75
2023/04/05 14:35:23;;;;;;;4.30;3.88;;;;;;;;;;5091488;28;20499;-73
2023/04/05 14:37:49;;;;;;;8.25;3.53;;;;;;;;;;5090595;28;20028;-73
2023/04/05 14:40:16;;;;;;;6.85;3.33;;;;;;;;;;5094472;28;20020;-74
2023/04/05 14:42:42;;;;;;;7.88;3.67;;;;;;;;;;5091091;28;20099;-74
2023/04/05 14:45:08;;;;;;;4.47;4.03;;;;;;;;;;5090270;28;20024;-75